sensor_id;sensor_type;location;lat;lon;timestamp;P1;durP1;ratioP1;P2;durP2;ratioP2
52776;SDS011;38656;54.260;20.822;2023-08-17T00:02:13;7.22;;;3.97;;
52776;SDS011;38656;54.260;20.822;2023-08-17T00:04:39;4.40;;;3.83;;
52776;SDS011;38656;54.260;20.822;2023-08-17T00:07:06;9.68;;;4.00;;
52776;SDS011;38656;54.260;20.822;2023-08-17T00:09:32;7.20;;;3.90;;
52776;SDS011;38656;54.260;20.822;2023-08-17T00:11:58;5.68;;;3.88;;
52776;SDS011;38656;54.260;20.822;2023-08-17T00:14:24;6.32;;;3.90;;
52776;SDS011;38656;54.260;20.822;2023-08-17T00:16:50;6.63;;;3.55;;
52776;SDS011;38656;54.260;20.822;2023-08-17T00:19:16;6.20;;;3.42;;
52776;SDS011;38656;54.260;20.822;2023-08-17T00:21:44;5.15;;;3.63;;
52776;SDS011;38656;54.260;20.822;2023-08-17T00:24:10;6.85;;;4.40;;
52776;SDS011;38656;54.260;20.822;2023-08-17T00:26:37;5.47;;;3.67;;
52776;SDS011;38656;54.260;20.822;2023-08-17T00:29:03;3.83;;;3.17;;
52776;SDS011;38656;54.260;20.822;2023-08-17T00:31:29;3.83;;;2.83;;
52776;SDS011;38656;54.260;20.822;2023-08-17T00:33:55;6.78;;;3.38;;
52776;SDS011;38656;54.260;20.822;2023-08-17T00:36:21;3.92;;;2.88;;
52776;SDS011;38656;54.260;20.822;2023-08-17T00:38:47;3.88;;;2.45;;
52776;SDS011;38656;54.260;20.822;2023-08-17T00:41:13;5.03;;;3.33;;
52776;SDS011;38656;54.260;20.822;2023-08-17T00:43:39;3.80;;;2.70;;
52776;SDS011;38656;54.260;20.822;2023-08-17T00:46:05;3.75;;;2.70;;
52776;SDS011;38656;54.260;20.822;2023-08-17T00:48:31;5.03;;;3.30;;
52776;SDS011;38656;54.260;20.822;2023-08-17T00:50:58;5.38;;;3.13;;
52776;SDS011;38656;54.260;20.822;2023-08-17T00:53:26;5.90;;;3.13;;
52776;SDS011;38656;54.260;20.822;2023-08-17T00:55:53;3.97;;;2.88;;
52776;SDS011;38656;54.260;20.822;2023-08-17T00:58:20;4.65;;;2.67;;
52776;SDS011;38656;54.260;20.822;2023-08-17T01:00:46;3.83;;;2.60;;
52776;SDS011;38656;54.260;20.822;2023-08-17T01:03:13;4.85;;;2.50;;
52776;SDS011;38656;54.260;20.822;2023-08-17T01:05:39;4.25;;;2.92;;
52776;SDS011;38656;54.260;20.822;2023-08-17T01:08:05;2.50;;;2.30;;
52776;SDS011;38656;54.260;20.822;2023-08-17T01:10:35;7.28;;;2.60;;
52776;SDS011;38656;54.260;20.822;2023-08-17T01:13:11;4.40;;;2.60;;
52776;SDS011;38656;54.260;20.822;2023-08-17T01:15:40;3.20;;;2.22;;
52776;SDS011;38656;54.260;20.822;2023-08-17T01:20:42;4.47;;;2.58;;
52776;SDS011;38656;54.260;20.822;2023-08-17T01:23:08;5.68;;;2.78;;
52776;SDS011;38656;54.260;20.822;2023-08-17T01:25:35;5.78;;;3.20;;
52776;SDS011;38656;54.260;20.822;2023-08-17T01:28:04;3.58;;;2.28;;
52776;SDS011;38656;54.260;20.822;2023-08-17T01:30:34;5.65;;;2.65;;
52776;SDS011;38656;54.260;20.822;2023-08-17T01:33:03;3.28;;;1.95;;
52776;SDS011;38656;54.260;20.822;2023-08-17T01:35:48;5.70;;;2.63;;
52776;SDS011;38656;54.260;20.822;2023-08-17T01:38:17;3.08;;;2.40;;
52776;SDS011;38656;54.260;20.822;2023-08-17T01:40:44;4.47;;;2.47;;
52776;SDS011;38656;54.260;20.822;2023-08-17T01:43:11;5.90;;;2.50;;
52776;SDS011;38656;54.260;20.822;2023-08-17T01:45:38;5.95;;;3.00;;
52776;SDS011;38656;54.260;20.822;2023-08-17T01:48:04;7.72;;;3.25;;
52776;SDS011;38656;54.260;20.822;2023-08-17T01:50:30;7.18;;;3.05;;
52776;SDS011;38656;54.260;20.822;2023-08-17T01:52:56;4.70;;;2.40;;
52776;SDS011;38656;54.260;20.822;2023-08-17T01:55:22;6.45;;;2.35;;
52776;SDS011;38656;54.260;20.822;2023-08-17T01:57:52;8.82;;;2.72;;
52776;SDS011;38656;54.260;20.822;2023-08-17T02:00:18;5.72;;;2.30;;
52776;SDS011;38656;54.260;20.822;2023-08-17T02:02:44;4.85;;;3.25;;
52776;SDS011;38656;54.260;20.822;2023-08-17T02:05:10;3.95;;;2.22;;
52776;SDS011;38656;54.260;20.822;2023-08-17T02:07:36;3.17;;;2.47;;
52776;SDS011;38656;54.260;20.822;2023-08-17T02:10:02;4.70;;;2.60;;
52776;SDS011;38656;54.260;20.822;2023-08-17T02:12:28;4.25;;;2.50;;
52776;SDS011;38656;54.260;20.822;2023-08-17T02:14:54;4.15;;;2.40;;
52776;SDS011;38656;54.260;20.822;2023-08-17T02:17:20;7.57;;;2.65;;
52776;SDS011;38656;54.260;20.822;2023-08-17T02:19:47;3.78;;;2.45;;
52776;SDS011;38656;54.260;20.822;2023-08-17T02:22:13;4.82;;;2.42;;
52776;SDS011;38656;54.260;20.822;2023-08-17T02:24:39;6.35;;;2.50;;
52776;SDS011;38656;54.260;20.822;2023-08-17T02:29:44;5.63;;;2.50;;
52776;SDS011;38656;54.260;20.822;2023-08-17T02:32:10;6.07;;;3.25;;
52776;SDS011;38656;54.260;20.822;2023-08-17T02:34:36;6.20;;;2.92;;
52776;SDS011;38656;54.260;20.822;2023-08-17T02:37:02;3.78;;;2.33;;
52776;SDS011;38656;54.260;20.822;2023-08-17T02:39:28;4.22;;;2.55;;
52776;SDS011;38656;54.260;20.822;2023-08-17T02:41:55;3.65;;;2.65;;
52776;SDS011;38656;54.260;20.822;2023-08-17T02:44:21;4.93;;;2.60;;
52776;SDS011;38656;54.260;20.822;2023-08-17T02:46:47;5.00;;;2.28;;
52776;SDS011;38656;54.260;20.822;2023-08-17T02:49:13;4.82;;;2.72;;
52776;SDS011;38656;54.260;20.822;2023-08-17T02:51:39;4.03;;;2.35;;
52776;SDS011;38656;54.260;20.822;2023-08-17T02:54:05;4.70;;;2.40;;
52776;SDS011;38656;54.260;20.822;2023-08-17T02:56:31;3.17;;;2.53;;
52776;SDS011;38656;54.260;20.822;2023-08-17T02:58:57;4.97;;;2.40;;
52776;SDS011;38656;54.260;20.822;2023-08-17T03:01:24;6.63;;;2.13;;
52776;SDS011;38656;54.260;20.822;2023-08-17T03:03:50;4.05;;;2.15;;
52776;SDS011;38656;54.260;20.822;2023-08-17T03:06:16;6.93;;;2.30;;
52776;SDS011;38656;54.260;20.822;2023-08-17T03:08:42;4.65;;;2.50;;
52776;SDS011;38656;54.260;20.822;2023-08-17T03:11:08;5.55;;;2.40;;
52776;SDS011;38656;54.260;20.822;2023-08-17T03:13:35;3.50;;;2.10;;
52776;SDS011;38656;54.260;20.822;2023-08-17T03:16:01;4.70;;;2.53;;
52776;SDS011;38656;54.260;20.822;2023-08-17T03:18:27;4.22;;;2.05;;
52776;SDS011;38656;54.260;20.822;2023-08-17T03:20:53;6.00;;;2.63;;
52776;SDS011;38656;54.260;20.822;2023-08-17T03:23:19;5.63;;;2.72;;
52776;SDS011;38656;54.260;20.822;2023-08-17T03:25:45;5.75;;;2.22;;
52776;SDS011;38656;54.260;20.822;2023-08-17T03:28:11;5.05;;;2.50;;
52776;SDS011;38656;54.260;20.822;2023-08-17T03:30:37;3.95;;;2.30;;
52776;SDS011;38656;54.260;20.822;2023-08-17T03:33:03;5.22;;;2.65;;
52776;SDS011;38656;54.260;20.822;2023-08-17T03:35:29;6.40;;;2.70;;
52776;SDS011;38656;54.260;20.822;2023-08-17T03:37:55;4.90;;;2.10;;
52776;SDS011;38656;54.260;20.822;2023-08-17T03:40:21;3.65;;;2.40;;
52776;SDS011;38656;54.260;20.822;2023-08-17T03:42:47;2.53;;;1.88;;
52776;SDS011;38656;54.260;20.822;2023-08-17T03:45:13;3.80;;;2.40;;
52776;SDS011;38656;54.260;20.822;2023-08-17T03:47:39;5.13;;;2.40;;
52776;SDS011;38656;54.260;20.822;2023-08-17T03:50:05;3.67;;;2.17;;
52776;SDS011;38656;54.260;20.822;2023-08-17T03:52:32;5.82;;;2.58;;
52776;SDS011;38656;54.260;20.822;2023-08-17T03:54:58;6.32;;;2.20;;
52776;SDS011;38656;54.260;20.822;2023-08-17T03:57:24;2.63;;;1.92;;
52776;SDS011;38656;54.260;20.822;2023-08-17T03:59:50;6.00;;;2.53;;
52776;SDS011;38656;54.260;20.822;2023-08-17T04:02:16;5.03;;;2.80;;
52776;SDS011;38656;54.260;20.822;2023-08-17T04:04:42;3.33;;;1.83;;
52776;SDS011;38656;54.260;20.822;2023-08-17T04:07:08;5.45;;;2.55;;
52776;SDS011;38656;54.260;20.822;2023-08-17T04:09:34;5.45;;;2.25;;
52776;SDS011;38656;54.260;20.822;2023-08-17T04:12:00;3.70;;;2.60;;
52776;SDS011;38656;54.260;20.822;2023-08-17T04:14:29;5.90;;;2.65;;
52776;SDS011;38656;54.260;20.822;2023-08-17T04:16:55;5.85;;;3.05;;
52776;SDS011;38656;54.260;20.822;2023-08-17T04:19:22;6.93;;;2.58;;
52776;SDS011;38656;54.260;20.822;2023-08-17T04:21:49;7.60;;;2.35;;
52776;SDS011;38656;54.260;20.822;2023-08-17T04:24:15;2.95;;;2.40;;
52776;SDS011;38656;54.260;20.822;2023-08-17T04:26:41;4.13;;;2.42;;
52776;SDS011;38656;54.260;20.822;2023-08-17T04:29:07;6.47;;;2.55;;
52776;SDS011;38656;54.260;20.822;2023-08-17T04:31:33;3.30;;;2.20;;
52776;SDS011;38656;54.260;20.822;2023-08-17T04:33:59;4.40;;;2.78;;
52776;SDS011;38656;54.260;20.822;2023-08-17T04:36:25;5.82;;;3.15;;
52776;SDS011;38656;54.260;20.822;2023-08-17T04:38:51;4.90;;;2.05;;
52776;SDS011;38656;54.260;20.822;2023-08-17T04:41:17;4.22;;;2.40;;
52776;SDS011;38656;54.260;20.822;2023-08-17T04:43:43;4.05;;;2.60;;
52776;SDS011;38656;54.260;20.822;2023-08-17T04:46:11;5.00;;;2.60;;
52776;SDS011;38656;54.260;20.822;2023-08-17T04:48:37;4.30;;;2.42;;
52776;SDS011;38656;54.260;20.822;2023-08-17T04:51:03;4.55;;;2.08;;
52776;SDS011;38656;54.260;20.822;2023-08-17T04:53:29;4.50;;;2.67;;
52776;SDS011;38656;54.260;20.822;2023-08-17T04:55:55;5.10;;;2.75;;
52776;SDS011;38656;54.260;20.822;2023-08-17T04:58:21;5.15;;;2.65;;
52776;SDS011;38656;54.260;20.822;2023-08-17T05:00:48;5.95;;;2.63;;
52776;SDS011;38656;54.260;20.822;2023-08-17T05:03:14;7.03;;;2.42;;
52776;SDS011;38656;54.260;20.822;2023-08-17T05:05:40;5.25;;;2.60;;
52776;SDS011;38656;54.260;20.822;2023-08-17T05:08:06;5.03;;;2.65;;
52776;SDS011;38656;54.260;20.822;2023-08-17T05:10:32;3.53;;;1.60;;
52776;SDS011;38656;54.260;20.822;2023-08-17T05:12:58;5.10;;;2.42;;
52776;SDS011;38656;54.260;20.822;2023-08-17T05:15:24;6.97;;;2.38;;
52776;SDS011;38656;54.260;20.822;2023-08-17T05:17:50;3.97;;;2.75;;
52776;SDS011;38656;54.260;20.822;2023-08-17T05:20:16;4.97;;;2.28;;
52776;SDS011;38656;54.260;20.822;2023-08-17T05:22:42;6.43;;;2.60;;
52776;SDS011;38656;54.260;20.822;2023-08-17T05:25:08;4.63;;;2.30;;
52776;SDS011;38656;54.260;20.822;2023-08-17T05:27:34;5.53;;;2.17;;
52776;SDS011;38656;54.260;20.822;2023-08-17T05:30:00;5.95;;;1.95;;
52776;SDS011;38656;54.260;20.822;2023-08-17T05:32:26;3.47;;;2.08;;
52776;SDS011;38656;54.260;20.822;2023-08-17T05:34:52;4.43;;;2.10;;
52776;SDS011;38656;54.260;20.822;2023-08-17T05:37:18;7.00;;;2.53;;
52776;SDS011;38656;54.260;20.822;2023-08-17T05:39:44;5.07;;;2.25;;
52776;SDS011;38656;54.260;20.822;2023-08-17T05:42:10;2.58;;;1.60;;
52776;SDS011;38656;54.260;20.822;2023-08-17T05:44:36;7.97;;;2.60;;
52776;SDS011;38656;54.260;20.822;2023-08-17T05:47:02;5.07;;;2.28;;
52776;SDS011;38656;54.260;20.822;2023-08-17T05:49:29;5.18;;;2.63;;
52776;SDS011;38656;54.260;20.822;2023-08-17T05:51:55;5.32;;;2.33;;
52776;SDS011;38656;54.260;20.822;2023-08-17T05:54:21;5.03;;;2.20;;
52776;SDS011;38656;54.260;20.822;2023-08-17T05:56:47;4.97;;;2.17;;
52776;SDS011;38656;54.260;20.822;2023-08-17T05:59:13;3.70;;;2.20;;
52776;SDS011;38656;54.260;20.822;2023-08-17T06:01:39;6.60;;;2.40;;
52776;SDS011;38656;54.260;20.822;2023-08-17T06:04:05;3.70;;;1.90;;
52776;SDS011;38656;54.260;20.822;2023-08-17T06:06:32;5.93;;;2.15;;
52776;SDS011;38656;54.260;20.822;2023-08-17T06:08:58;5.63;;;2.30;;
52776;SDS011;38656;54.260;20.822;2023-08-17T06:11:24;3.90;;;1.80;;
52776;SDS011;38656;54.260;20.822;2023-08-17T06:13:50;5.53;;;2.13;;
52776;SDS011;38656;54.260;20.822;2023-08-17T06:16:16;5.20;;;2.75;;
52776;SDS011;38656;54.260;20.822;2023-08-17T06:18:42;6.50;;;2.38;;
52776;SDS011;38656;54.260;20.822;2023-08-17T06:21:08;6.03;;;2.13;;
52776;SDS011;38656;54.260;20.822;2023-08-17T06:23:35;6.10;;;2.58;;
52776;SDS011;38656;54.260;20.822;2023-08-17T06:26:01;3.25;;;1.95;;
52776;SDS011;38656;54.260;20.822;2023-08-17T06:28:28;4.47;;;2.03;;
52776;SDS011;38656;54.260;20.822;2023-08-17T06:30:54;4.97;;;1.90;;
52776;SDS011;38656;54.260;20.822;2023-08-17T06:33:21;4.72;;;2.38;;
52776;SDS011;38656;54.260;20.822;2023-08-17T06:35:47;4.32;;;1.98;;
52776;SDS011;38656;54.260;20.822;2023-08-17T06:38:13;4.00;;;2.45;;
52776;SDS011;38656;54.260;20.822;2023-08-17T06:40:39;4.28;;;1.70;;
52776;SDS011;38656;54.260;20.822;2023-08-17T06:43:05;3.22;;;1.80;;
52776;SDS011;38656;54.260;20.822;2023-08-17T06:45:32;8.75;;;2.08;;
52776;SDS011;38656;54.260;20.822;2023-08-17T06:47:58;3.85;;;2.22;;
52776;SDS011;38656;54.260;20.822;2023-08-17T06:50:24;3.58;;;1.90;;
52776;SDS011;38656;54.260;20.822;2023-08-17T06:52:51;3.13;;;1.48;;
52776;SDS011;38656;54.260;20.822;2023-08-17T06:55:17;4.22;;;1.65;;
52776;SDS011;38656;54.260;20.822;2023-08-17T06:57:44;8.20;;;2.05;;
52776;SDS011;38656;54.260;20.822;2023-08-17T07:00:10;3.72;;;1.42;;
52776;SDS011;38656;54.260;20.822;2023-08-17T07:02:37;3.25;;;1.25;;
52776;SDS011;38656;54.260;20.822;2023-08-17T07:05:03;3.42;;;1.30;;
52776;SDS011;38656;54.260;20.822;2023-08-17T07:07:30;2.58;;;1.42;;
52776;SDS011;38656;54.260;20.822;2023-08-17T07:09:59;2.33;;;1.38;;
52776;SDS011;38656;54.260;20.822;2023-08-17T07:12:26;5.35;;;1.80;;
52776;SDS011;38656;54.260;20.822;2023-08-17T07:14:53;4.18;;;1.80;;
52776;SDS011;38656;54.260;20.822;2023-08-17T07:17:19;3.65;;;1.45;;
52776;SDS011;38656;54.260;20.822;2023-08-17T07:19:45;8.93;;;1.60;;
52776;SDS011;38656;54.260;20.822;2023-08-17T07:22:11;3.08;;;1.50;;
52776;SDS011;38656;54.260;20.822;2023-08-17T07:24:37;4.65;;;1.55;;
52776;SDS011;38656;54.260;20.822;2023-08-17T07:27:03;3.42;;;1.70;;
52776;SDS011;38656;54.260;20.822;2023-08-17T07:29:29;2.97;;;1.33;;
52776;SDS011;38656;54.260;20.822;2023-08-17T07:31:56;3.92;;;1.48;;
52776;SDS011;38656;54.260;20.822;2023-08-17T07:34:26;6.07;;;1.50;;
52776;SDS011;38656;54.260;20.822;2023-08-17T07:36:52;8.52;;;1.80;;
52776;SDS011;38656;54.260;20.822;2023-08-17T07:39:18;2.83;;;1.42;;
52776;SDS011;38656;54.260;20.822;2023-08-17T07:41:44;2.05;;;1.40;;
52776;SDS011;38656;54.260;20.822;2023-08-17T07:44:10;3.33;;;1.00;;
52776;SDS011;38656;54.260;20.822;2023-08-17T07:46:36;7.38;;;1.98;;
52776;SDS011;38656;54.260;20.822;2023-08-17T07:49:02;3.40;;;1.80;;
52776;SDS011;38656;54.260;20.822;2023-08-17T07:51:28;2.80;;;1.70;;
52776;SDS011;38656;54.260;20.822;2023-08-17T07:53:56;4.60;;;1.85;;
52776;SDS011;38656;54.260;20.822;2023-08-17T07:56:22;4.25;;;1.90;;
52776;SDS011;38656;54.260;20.822;2023-08-17T07:58:48;4.10;;;2.10;;
52776;SDS011;38656;54.260;20.822;2023-08-17T08:01:15;3.88;;;2.10;;
52776;SDS011;38656;54.260;20.822;2023-08-17T08:03:41;4.90;;;1.48;;
52776;SDS011;38656;54.260;20.822;2023-08-17T08:06:06;4.78;;;1.90;;
52776;SDS011;38656;54.260;20.822;2023-08-17T08:08:33;4.13;;;1.50;;
52776;SDS011;38656;54.260;20.822;2023-08-17T08:10:59;1.95;;;1.30;;
52776;SDS011;38656;54.260;20.822;2023-08-17T08:13:25;2.90;;;1.67;;
52776;SDS011;38656;54.260;20.822;2023-08-17T08:15:51;3.03;;;1.50;;
52776;SDS011;38656;54.260;20.822;2023-08-17T08:18:17;4.07;;;2.00;;
52776;SDS011;38656;54.260;20.822;2023-08-17T08:20:43;3.03;;;1.83;;
52776;SDS011;38656;54.260;20.822;2023-08-17T08:23:09;3.95;;;1.70;;
52776;SDS011;38656;54.260;20.822;2023-08-17T08:25:36;2.35;;;1.73;;
52776;SDS011;38656;54.260;20.822;2023-08-17T08:28:02;4.25;;;1.90;;
52776;SDS011;38656;54.260;20.822;2023-08-17T08:30:28;2.20;;;1.65;;
52776;SDS011;38656;54.260;20.822;2023-08-17T08:32:55;5.22;;;1.67;;
52776;SDS011;38656;54.260;20.822;2023-08-17T08:35:23;4.68;;;1.70;;
52776;SDS011;38656;54.260;20.822;2023-08-17T08:37:49;5.13;;;2.20;;
52776;SDS011;38656;54.260;20.822;2023-08-17T08:40:16;2.35;;;1.90;;
52776;SDS011;38656;54.260;20.822;2023-08-17T08:42:42;4.15;;;1.77;;
52776;SDS011;38656;54.260;20.822;2023-08-17T08:45:09;4.53;;;2.38;;
52776;SDS011;38656;54.260;20.822;2023-08-17T08:47:36;2.17;;;1.70;;
52776;SDS011;38656;54.260;20.822;2023-08-17T08:50:03;4.13;;;1.75;;
52776;SDS011;38656;54.260;20.822;2023-08-17T08:54:59;4.05;;;1.67;;
52776;SDS011;38656;54.260;20.822;2023-08-17T08:57:27;4.18;;;2.15;;
52776;SDS011;38656;54.260;20.822;2023-08-17T08:59:53;2.80;;;2.25;;
52776;SDS011;38656;54.260;20.822;2023-08-17T09:02:20;3.47;;;1.85;;
52776;SDS011;38656;54.260;20.822;2023-08-17T09:04:46;2.35;;;2.15;;
52776;SDS011;38656;54.260;20.822;2023-08-17T09:07:12;4.93;;;2.42;;
52776;SDS011;38656;54.260;20.822;2023-08-17T09:09:39;3.58;;;1.88;;
52776;SDS011;38656;54.260;20.822;2023-08-17T09:12:07;4.72;;;2.00;;
52776;SDS011;38656;54.260;20.822;2023-08-17T09:14:34;6.30;;;2.20;;
52776;SDS011;38656;54.260;20.822;2023-08-17T09:17:00;3.78;;;2.50;;
52776;SDS011;38656;54.260;20.822;2023-08-17T09:19:26;5.05;;;2.25;;
52776;SDS011;38656;54.260;20.822;2023-08-17T09:21:53;3.13;;;1.90;;
52776;SDS011;38656;54.260;20.822;2023-08-17T09:24:19;2.72;;;1.63;;
52776;SDS011;38656;54.260;20.822;2023-08-17T09:26:45;5.38;;;2.33;;
52776;SDS011;38656;54.260;20.822;2023-08-17T09:29:18;5.53;;;2.25;;
52776;SDS011;38656;54.260;20.822;2023-08-17T09:31:44;4.65;;;2.60;;
52776;SDS011;38656;54.260;20.822;2023-08-17T09:34:10;4.13;;;2.10;;
52776;SDS011;38656;54.260;20.822;2023-08-17T09:36:36;4.45;;;2.33;;
52776;SDS011;38656;54.260;20.822;2023-08-17T09:39:02;5.65;;;3.05;;
52776;SDS011;38656;54.260;20.822;2023-08-17T09:41:28;8.15;;;2.95;;
52776;SDS011;38656;54.260;20.822;2023-08-17T09:43:55;5.30;;;2.67;;
52776;SDS011;38656;54.260;20.822;2023-08-17T09:46:21;5.93;;;2.30;;
52776;SDS011;38656;54.260;20.822;2023-08-17T09:48:47;6.53;;;3.13;;
52776;SDS011;38656;54.260;20.822;2023-08-17T09:51:16;3.33;;;2.25;;
52776;SDS011;38656;54.260;20.822;2023-08-17T09:53:43;8.85;;;2.78;;
52776;SDS011;38656;54.260;20.822;2023-08-17T09:56:09;6.32;;;2.65;;
52776;SDS011;38656;54.260;20.822;2023-08-17T09:58:38;4.13;;;2.40;;
52776;SDS011;38656;54.260;20.822;2023-08-17T10:01:07;3.78;;;2.33;;
52776;SDS011;38656;54.260;20.822;2023-08-17T10:03:34;3.97;;;2.78;;
52776;SDS011;38656;54.260;20.822;2023-08-17T10:06:05;2.88;;;2.10;;
52776;SDS011;38656;54.260;20.822;2023-08-17T10:08:43;2.38;;;2.17;;
52776;SDS011;38656;54.260;20.822;2023-08-17T10:11:09;4.22;;;2.20;;
52776;SDS011;38656;54.260;20.822;2023-08-17T10:16:11;8.15;;;2.53;;
52776;SDS011;38656;54.260;20.822;2023-08-17T10:21:13;4.68;;;2.20;;
52776;SDS011;38656;54.260;20.822;2023-08-17T10:23:43;3.70;;;2.10;;
52776;SDS011;38656;54.260;20.822;2023-08-17T10:26:10;3.95;;;2.15;;
52776;SDS011;38656;54.260;20.822;2023-08-17T10:28:37;9.20;;;2.58;;
52776;SDS011;38656;54.260;20.822;2023-08-17T10:31:04;3.53;;;2.03;;
52776;SDS011;38656;54.260;20.822;2023-08-17T10:33:30;5.40;;;2.50;;
52776;SDS011;38656;54.260;20.822;2023-08-17T10:36:09;5.53;;;2.33;;
52776;SDS011;38656;54.260;20.822;2023-08-17T10:38:35;4.05;;;1.90;;
52776;SDS011;38656;54.260;20.822;2023-08-17T10:43:34;3.27;;;2.00;;
52776;SDS011;38656;54.260;20.822;2023-08-17T10:46:16;4.50;;;2.38;;
52776;SDS011;38656;54.260;20.822;2023-08-17T10:48:45;3.25;;;2.15;;
52776;SDS011;38656;54.260;20.822;2023-08-17T10:51:11;5.35;;;2.42;;
52776;SDS011;38656;54.260;20.822;2023-08-17T10:53:38;7.80;;;2.50;;
52776;SDS011;38656;54.260;20.822;2023-08-17T10:56:08;3.30;;;2.65;;
52776;SDS011;38656;54.260;20.822;2023-08-17T10:58:36;3.70;;;2.10;;
52776;SDS011;38656;54.260;20.822;2023-08-17T11:01:02;2.90;;;2.67;;
52776;SDS011;38656;54.260;20.822;2023-08-17T11:03:28;3.08;;;2.25;;
52776;SDS011;38656;54.260;20.822;2023-08-17T11:05:55;5.75;;;1.90;;
52776;SDS011;38656;54.260;20.822;2023-08-17T11:10:48;3.38;;;2.35;;
52776;SDS011;38656;54.260;20.822;2023-08-17T11:13:23;2.95;;;2.10;;
52776;SDS011;38656;54.260;20.822;2023-08-17T11:15:49;4.63;;;2.40;;
52776;SDS011;38656;54.260;20.822;2023-08-17T11:18:15;3.78;;;2.53;;
52776;SDS011;38656;54.260;20.822;2023-08-17T11:20:42;2.45;;;1.90;;
52776;SDS011;38656;54.260;20.822;2023-08-17T11:23:08;2.83;;;2.33;;
52776;SDS011;38656;54.260;20.822;2023-08-17T11:25:34;2.40;;;2.20;;
52776;SDS011;38656;54.260;20.822;2023-08-17T11:28:01;4.82;;;2.65;;
52776;SDS011;38656;54.260;20.822;2023-08-17T11:30:27;2.75;;;2.20;;
52776;SDS011;38656;54.260;20.822;2023-08-17T11:32:54;8.27;;;2.30;;
52776;SDS011;38656;54.260;20.822;2023-08-17T11:35:20;2.60;;;2.38;;
52776;SDS011;38656;54.260;20.822;2023-08-17T11:37:47;4.07;;;2.53;;
52776;SDS011;38656;54.260;20.822;2023-08-17T11:40:14;2.80;;;2.20;;
52776;SDS011;38656;54.260;20.822;2023-08-17T11:42:40;6.60;;;2.70;;
52776;SDS011;38656;54.260;20.822;2023-08-17T11:45:07;4.07;;;2.85;;
52776;SDS011;38656;54.260;20.822;2023-08-17T11:47:40;4.68;;;2.60;;
52776;SDS011;38656;54.260;20.822;2023-08-17T11:50:10;3.92;;;2.80;;
52776;SDS011;38656;54.260;20.822;2023-08-17T11:52:37;3.05;;;2.55;;
52776;SDS011;38656;54.260;20.822;2023-08-17T11:55:07;2.60;;;2.40;;
52776;SDS011;38656;54.260;20.822;2023-08-17T11:57:36;6.00;;;3.40;;
52776;SDS011;38656;54.260;20.822;2023-08-17T12:00:03;4.55;;;3.13;;
52776;SDS011;38656;54.260;20.822;2023-08-17T12:02:35;6.97;;;3.00;;
52776;SDS011;38656;54.260;20.822;2023-08-17T12:05:07;4.75;;;3.00;;
52776;SDS011;38656;54.260;20.822;2023-08-17T12:07:34;6.45;;;2.95;;
52776;SDS011;38656;54.260;20.822;2023-08-17T12:10:02;9.23;;;3.10;;
52776;SDS011;38656;54.260;20.822;2023-08-17T12:12:29;6.60;;;3.42;;
52776;SDS011;38656;54.260;20.822;2023-08-17T12:14:56;5.72;;;3.28;;
52776;SDS011;38656;54.260;20.822;2023-08-17T12:17:22;3.20;;;2.88;;
52776;SDS011;38656;54.260;20.822;2023-08-17T12:19:49;7.93;;;3.72;;
52776;SDS011;38656;54.260;20.822;2023-08-17T12:22:16;5.75;;;3.30;;
52776;SDS011;38656;54.260;20.822;2023-08-17T12:24:42;5.80;;;3.20;;
52776;SDS011;38656;54.260;20.822;2023-08-17T12:27:09;7.80;;;4.32;;
52776;SDS011;38656;54.260;20.822;2023-08-17T12:29:50;4.93;;;4.20;;
52776;SDS011;38656;54.260;20.822;2023-08-17T12:32:17;5.88;;;3.92;;
52776;SDS011;38656;54.260;20.822;2023-08-17T12:34:44;6.22;;;3.80;;
52776;SDS011;38656;54.260;20.822;2023-08-17T12:37:10;9.95;;;2.97;;
52776;SDS011;38656;54.260;20.822;2023-08-17T12:39:37;5.80;;;3.55;;
52776;SDS011;38656;54.260;20.822;2023-08-17T12:42:03;5.13;;;3.78;;
52776;SDS011;38656;54.260;20.822;2023-08-17T12:44:29;6.03;;;3.28;;
52776;SDS011;38656;54.260;20.822;2023-08-17T12:46:55;8.73;;;3.72;;
52776;SDS011;38656;54.260;20.822;2023-08-17T12:49:22;7.45;;;3.90;;
52776;SDS011;38656;54.260;20.822;2023-08-17T12:51:49;7.53;;;4.22;;
52776;SDS011;38656;54.260;20.822;2023-08-17T12:54:15;5.65;;;3.83;;
52776;SDS011;38656;54.260;20.822;2023-08-17T12:56:41;4.78;;;3.05;;
52776;SDS011;38656;54.260;20.822;2023-08-17T12:59:07;5.75;;;3.50;;
52776;SDS011;38656;54.260;20.822;2023-08-17T13:01:33;4.05;;;3.42;;
52776;SDS011;38656;54.260;20.822;2023-08-17T13:03:59;6.10;;;3.85;;
52776;SDS011;38656;54.260;20.822;2023-08-17T13:06:26;4.88;;;3.58;;
52776;SDS011;38656;54.260;20.822;2023-08-17T13:08:56;3.97;;;3.50;;
52776;SDS011;38656;54.260;20.822;2023-08-17T13:11:22;6.50;;;3.47;;
52776;SDS011;38656;54.260;20.822;2023-08-17T13:13:48;4.50;;;3.65;;
52776;SDS011;38656;54.260;20.822;2023-08-17T13:16:14;13.52;;;3.58;;
52776;SDS011;38656;54.260;20.822;2023-08-17T13:18:40;4.53;;;3.10;;
52776;SDS011;38656;54.260;20.822;2023-08-17T13:21:06;7.63;;;3.83;;
52776;SDS011;38656;54.260;20.822;2023-08-17T13:23:32;12.05;;;3.60;;
52776;SDS011;38656;54.260;20.822;2023-08-17T13:25:58;5.53;;;3.65;;
52776;SDS011;38656;54.260;20.822;2023-08-17T13:28:24;4.07;;;3.00;;
52776;SDS011;38656;54.260;20.822;2023-08-17T13:30:50;8.55;;;3.33;;
52776;SDS011;38656;54.260;20.822;2023-08-17T13:33:16;11.02;;;3.03;;
52776;SDS011;38656;54.260;20.822;2023-08-17T13:35:43;6.47;;;3.50;;
52776;SDS011;38656;54.260;20.822;2023-08-17T13:38:09;10.18;;;3.17;;
52776;SDS011;38656;54.260;20.822;2023-08-17T13:40:35;6.10;;;3.83;;
52776;SDS011;38656;54.260;20.822;2023-08-17T13:43:03;4.70;;;3.13;;
52776;SDS011;38656;54.260;20.822;2023-08-17T13:45:33;7.88;;;2.90;;
52776;SDS011;38656;54.260;20.822;2023-08-17T13:47:59;6.65;;;3.20;;
52776;SDS011;38656;54.260;20.822;2023-08-17T13:50:26;4.53;;;3.03;;
52776;SDS011;38656;54.260;20.822;2023-08-17T13:52:52;8.02;;;3.78;;
52776;SDS011;38656;54.260;20.822;2023-08-17T13:55:18;4.40;;;3.30;;
52776;SDS011;38656;54.260;20.822;2023-08-17T13:57:44;4.63;;;3.03;;
52776;SDS011;38656;54.260;20.822;2023-08-17T14:00:11;7.18;;;3.60;;
52776;SDS011;38656;54.260;20.822;2023-08-17T14:02:37;7.10;;;3.10;;
52776;SDS011;38656;54.260;20.822;2023-08-17T14:05:04;4.75;;;2.28;;
52776;SDS011;38656;54.260;20.822;2023-08-17T14:07:30;3.20;;;2.15;;
52776;SDS011;38656;54.260;20.822;2023-08-17T14:09:56;3.10;;;2.00;;
52776;SDS011;38656;54.260;20.822;2023-08-17T14:12:22;3.22;;;1.70;;
52776;SDS011;38656;54.260;20.822;2023-08-17T14:14:48;5.57;;;2.47;;
52776;SDS011;38656;54.260;20.822;2023-08-17T14:17:14;4.72;;;2.40;;
52776;SDS011;38656;54.260;20.822;2023-08-17T14:19:40;5.55;;;2.35;;
52776;SDS011;38656;54.260;20.822;2023-08-17T14:22:07;4.60;;;2.50;;
52776;SDS011;38656;54.260;20.822;2023-08-17T14:24:33;5.97;;;2.70;;
52776;SDS011;38656;54.260;20.822;2023-08-17T14:26:59;12.77;;;3.42;;
52776;SDS011;38656;54.260;20.822;2023-08-17T14:29:25;9.50;;;2.33;;
52776;SDS011;38656;54.260;20.822;2023-08-17T14:31:51;3.45;;;2.40;;
52776;SDS011;38656;54.260;20.822;2023-08-17T14:34:17;8.07;;;2.30;;
52776;SDS011;38656;54.260;20.822;2023-08-17T14:36:44;4.32;;;2.55;;
52776;SDS011;38656;54.260;20.822;2023-08-17T14:39:10;4.20;;;2.40;;
52776;SDS011;38656;54.260;20.822;2023-08-17T14:41:36;3.45;;;2.35;;
52776;SDS011;38656;54.260;20.822;2023-08-17T14:44:02;5.85;;;2.45;;
52776;SDS011;38656;54.260;20.822;2023-08-17T14:46:29;6.93;;;3.15;;
52776;SDS011;38656;54.260;20.822;2023-08-17T14:48:55;3.38;;;2.13;;